Ambler Airport Ambler US
ICAO: PAFM
IATA:
Category: Medium
Scheduled Services:

Elevation: 334 ft
TransAlt. 18000 ft.

Airport Communications:
AWOS 3:132.1
ANCHORAGE CNTR:119.2
CTAF:122.7
KOTEZBUE RDO:122
TWEB:40.3

PAFM Zoom In..

Runways:

(A) RW 09 length 2400 ft width 60 ft
---- / hdg 91

(B) RW 18 length 3000 ft width 60 ft
---- / hdg 181

(C) RW 27 length 2400 ft width 60 ft
---- / hdg 271

(D) RW 36 length 3000 ft width 60 ft
---- / hdg 1

Location; PAFM
Day. 15 / Time. 22.24 Zulu
* Altimeter: 29.77
* Temperature: 12° c. 53.6°f.
* Wind from: 260° Speed 04 kn.
Dewpoint: 11° c.
Visibility: 10 Statute Miles.
Clouds: Broken 1100 ft.
Clouds: Broken 2100 ft.
Clouds: Overcast 3200 ft.
Conditions: Light Rain.

PAFM 152224Z AUTO 26004KT 10SM -RA BKN011 BKN021 OVC032 12/11 A2977 RMK AO2 P0003


Wind From 260°
Speed 04 kn.

 
 
jpsmedia.com for Web Design worldairports.se 2018   terms of use